Aérodrome :
LOGIN :

S'inscrire | Disclaimer

   EN    FR    IT 

 










Légende :    VFR   VFR Marginal   IFR   IFR Intensif   IFR Très Intensif
Visi : 
Plafond : 
>= 8 km
>= 3000ft
5 à 8 km
1000 à 3000 ft
1500m à 5 km
500 à 1000 ft
800 à 1500m
200 à 500 ft
< 800m
< 200 ft
Symboles :   Orages  Brouillard  Fortes neiges  Fortes précipitations  Vent > 20 kt
SIGMETs :   Divers  Orages  Givrage  Turbulence  Onde Orograph.  Cendres Volcan.







- Altitude de l'aérodrome : 1860 ft
- Code IATA : GRX


LEGR - Granada

DERNIER METAR :
  • 171700Z 16013KT 120V200 9999 FEW070 37/13 Q1017

METARs EXPIRÉS :
  • 171630Z 16014KT 130V190 9999 FEW070 37/13 Q1017
  • 171600Z 15011KT 110V200 9999 FEW070 38/13 Q1017
  • 171530Z 14011KT 100V170 9999 FEW070 38/12 Q1017
  • 171500Z VRB06KT 9999 FEW070 38/12 Q1017
  • 171430Z VRB01KT 9999 FEW070 39/12 Q1018

TAF TAF LEGR
Valide du 17 à 15h jusqu'au 18 à 15h UTC


171400Z 1715/1815 VRB02KT CAVOK TX39/1716Z TN18/1806Z
TEMPO 1715/1719 16011KT
BECMG 1812/1814 14010KT
Pas de NOTAMs connus pour ce terrain.



MET'MAP, la Météo Aéronautique d'un coup d'oeil ! - Copyright ORBIFLY Décembre 2007 - Disclaimer

ORBIFLY MET'MAP TEAM :

Programmation & Développement : Alexandra Zaïnal
Conception & Développement : Baudouin d'Aumeries
Co-Programmation & Développement : Marc-Olivier Méhu
Soutien technique & logistique : Manuel Goepfert

Contact : metmap@orbifly.com




SOURCES & CREDITS :

   NOAA